createdAt,value
2019-03-27T00:00:16.176Z,72.00
2019-03-27T00:02:44.016Z,72.19
2019-03-27T00:05:12.256Z,72.29
2019-03-27T00:07:40.035Z,72.34
2019-03-27T00:10:09.238Z,72.47
2019-03-27T00:12:37.130Z,72.52
2019-03-27T00:15:12.751Z,72.66
2019-03-27T00:17:36.292Z,72.70
2019-03-27T00:20:04.920Z,72.75
2019-03-27T00:22:32.747Z,72.75
2019-03-27T00:25:00.530Z,72.89
2019-03-27T00:27:28.398Z,72.91
2019-03-27T00:29:56.204Z,72.82
2019-03-27T00:32:24.007Z,73.05
2019-03-27T00:34:51.835Z,73.01
2019-03-27T00:37:19.639Z,72.97
2019-03-27T00:39:47.451Z,73.12
2019-03-27T00:42:15.261Z,73.36
2019-03-27T00:44:43.067Z,73.34
2019-03-27T00:47:10.933Z,73.42
2019-03-27T00:49:38.721Z,73.40
2019-03-27T00:52:06.494Z,73.57
2019-03-27T00:54:34.378Z,73.60
2019-03-27T00:57:02.202Z,73.52
2019-03-27T00:59:30.058Z,73.74
2019-03-27T01:01:57.849Z,73.74
2019-03-27T01:04:25.657Z,73.75
2019-03-27T01:06:53.477Z,73.66
2019-03-27T01:09:21.429Z,73.55
2019-03-27T01:11:49.259Z,73.48
2019-03-27T01:14:17.061Z,73.60
2019-03-27T01:16:44.952Z,73.56
2019-03-27T01:19:12.793Z,73.47
2019-03-27T01:21:40.599Z,73.39
2019-03-27T01:24:08.448Z,73.29
2019-03-27T01:26:36.263Z,73.19
2019-03-27T01:29:04.060Z,73.10
2019-03-27T01:31:31.919Z,72.89
2019-03-27T01:33:59.795Z,72.89
2019-03-27T01:36:27.613Z,73.06
2019-03-27T01:38:55.496Z,73.23
2019-03-27T01:41:23.299Z,73.40
2019-03-27T01:43:51.082Z,73.40
2019-03-27T01:46:18.951Z,73.35
2019-03-27T01:48:46.813Z,73.52
2019-03-27T01:51:14.639Z,73.63
2019-03-27T01:53:42.504Z,73.84
2019-03-27T01:56:10.319Z,73.84
2019-03-27T01:58:38.198Z,73.80
2019-03-27T02:01:06.109Z,73.85
2019-03-27T02:03:33.993Z,73.83
2019-03-27T02:06:01.899Z,73.84
2019-03-27T02:08:29.723Z,73.90
2019-03-27T02:10:57.551Z,74.13
2019-03-27T02:13:25.326Z,74.15
2019-03-27T02:16:05.863Z,74.45
2019-03-27T02:18:22.880Z,75.06
2019-03-27T02:20:50.823Z,74.96
2019-03-27T02:23:18.637Z,74.96
2019-03-27T02:25:46.416Z,75.03
2019-03-27T02:28:14.242Z,74.87
2019-03-27T02:30:42.021Z,74.92
2019-03-27T02:33:09.819Z,74.87
2019-03-27T02:35:37.662Z,75.01
2019-03-27T02:38:05.554Z,75.07
2019-03-27T02:40:33.440Z,75.00
2019-03-27T02:43:01.296Z,74.98
2019-03-27T02:45:29.078Z,74.82
2019-03-27T02:47:56.955Z,74.90
2019-03-27T02:50:24.831Z,74.90
2019-03-27T02:52:52.669Z,74.76
2019-03-27T02:55:20.547Z,74.65
2019-03-27T02:57:48.390Z,74.61
2019-03-27T03:00:17.146Z,74.41
2019-03-27T03:02:44.935Z,74.41
2019-03-27T03:05:12.946Z,74.26
2019-03-27T03:07:40.782Z,74.44
2019-03-27T03:10:09.481Z,74.32
2019-03-27T03:12:37.308Z,74.41
2019-03-27T03:15:06.494Z,74.44
2019-03-27T03:17:34.372Z,74.60
2019-03-27T03:20:02.194Z,74.60
2019-03-27T03:22:29.974Z,74.41
2019-03-27T03:24:57.753Z,74.44
2019-03-27T03:27:25.646Z,74.43
2019-03-27T03:29:53.421Z,74.43
2019-03-27T03:32:21.421Z,74.52
2019-03-27T03:34:49.293Z,74.64
2019-03-27T03:37:17.083Z,74.60
2019-03-27T03:39:44.925Z,74.74
2019-03-27T03:42:12.703Z,75.29
2019-03-27T03:44:40.517Z,75.17
2019-03-27T03:47:08.345Z,75.07
2019-03-27T03:49:36.221Z,74.86
2019-03-27T03:52:04.446Z,74.80
2019-03-27T03:54:32.388Z,74.43
2019-03-27T03:57:02.525Z,74.43
2019-03-27T03:59:30.806Z,74.31
2019-03-27T04:02:02.555Z,74.23
2019-03-27T04:04:31.945Z,74.29
2019-03-27T04:06:59.790Z,74.26
2019-03-27T04:09:27.660Z,74.26
2019-03-27T04:11:55.540Z,74.24
2019-03-27T04:14:23.367Z,74.19
2019-03-27T04:16:51.198Z,74.47
2019-03-27T04:19:19.011Z,74.26
2019-03-27T04:21:46.829Z,74.47
2019-03-27T04:24:14.667Z,74.48
2019-03-27T04:26:42.487Z,74.57
2019-03-27T04:29:10.331Z,74.61
2019-03-27T04:31:38.209Z,74.68
2019-03-27T04:34:06.022Z,74.45
2019-03-27T04:36:33.823Z,74.14
2019-03-27T04:39:01.615Z,74.00
2019-03-27T04:41:29.473Z,73.92
2019-03-27T04:43:57.294Z,73.99
2019-03-27T04:46:25.158Z,74.19
2019-03-27T04:48:52.989Z,74.49
2019-03-27T04:51:20.848Z,74.64
2019-03-27T04:53:48.668Z,74.65
2019-03-27T04:56:16.504Z,75.00
2019-03-27T04:58:44.352Z,75.14
2019-03-27T05:01:12.133Z,75.30
2019-03-27T05:03:39.907Z,75.43
2019-03-27T05:06:07.741Z,75.34
2019-03-27T05:08:35.539Z,75.27
2019-03-27T05:11:03.424Z,75.20
2019-03-27T05:13:31.255Z,75.18
2019-03-27T05:15:59.277Z,74.96
2019-03-27T05:18:27.090Z,74.84
2019-03-27T05:20:54.886Z,74.87
2019-03-27T05:23:22.658Z,74.75
2019-03-27T05:25:50.475Z,74.75
2019-03-27T05:28:18.660Z,74.73
2019-03-27T05:30:46.446Z,74.73
2019-03-27T05:33:14.272Z,74.51
2019-03-27T05:35:42.085Z,74.40
2019-03-27T05:38:09.930Z,74.52
2019-03-27T05:40:37.708Z,74.39
2019-03-27T05:43:05.535Z,74.36
2019-03-27T05:45:33.358Z,74.33
2019-03-27T05:48:01.136Z,74.29
2019-03-27T05:50:29.049Z,74.39
2019-03-27T05:52:56.903Z,74.46
2019-03-27T05:55:26.610Z,74.47
2019-03-27T05:57:54.533Z,74.47
2019-03-27T06:00:22.599Z,74.41
2019-03-27T06:02:50.447Z,74.58
2019-03-27T06:05:18.320Z,74.68
2019-03-27T06:07:46.149Z,75.07
2019-03-27T06:10:16.358Z,75.39
2019-03-27T06:12:43.760Z,75.74
2019-03-27T06:15:11.723Z,75.80
2019-03-27T06:17:39.526Z,75.98
2019-03-27T06:20:07.316Z,76.11
2019-03-27T06:22:35.277Z,75.93
2019-03-27T06:25:03.456Z,76.06
2019-03-27T06:27:31.224Z,75.91
2019-03-27T06:29:59.039Z,75.92
2019-03-27T06:32:26.965Z,76.03
2019-03-27T06:34:54.750Z,76.07
2019-03-27T06:37:22.552Z,76.11
2019-03-27T06:39:50.515Z,76.06
2019-03-27T06:42:18.325Z,75.80
2019-03-27T06:44:46.122Z,75.66
2019-03-27T06:47:13.943Z,75.83
2019-03-27T06:49:42.215Z,75.48
2019-03-27T06:52:10.033Z,75.06
2019-03-27T06:54:37.934Z,74.62
2019-03-27T06:57:05.792Z,74.33
2019-03-27T06:59:33.657Z,74.01
2019-03-27T07:02:01.466Z,73.87
2019-03-27T07:04:29.276Z,73.02
2019-03-27T07:06:57.114Z,73.02
2019-03-27T07:09:24.930Z,71.98
2019-03-27T07:11:52.742Z,71.98
2019-03-27T07:14:20.627Z,70.74
2019-03-27T07:16:48.417Z,70.74
2019-03-27T07:19:16.986Z,70.16
2019-03-27T07:21:44.840Z,69.72
2019-03-27T07:24:12.708Z,69.11
2019-03-27T07:26:40.629Z,69.18
2019-03-27T07:29:08.453Z,68.74
2019-03-27T07:31:36.287Z,68.12
2019-03-27T07:34:04.108Z,68.20
2019-03-27T07:36:31.962Z,67.71
2019-03-27T07:39:10.402Z,67.71
2019-03-27T07:41:29.557Z,67.26
2019-03-27T07:43:57.408Z,67.37
2019-03-27T07:46:25.289Z,67.23
2019-03-27T07:48:54.483Z,67.21
2019-03-27T07:51:22.570Z,67.05
2019-03-27T07:53:50.424Z,67.77
2019-03-27T07:56:18.346Z,67.70
2019-03-27T07:58:46.393Z,67.79
2019-03-27T08:01:14.225Z,67.55
2019-03-27T08:03:42.088Z,67.46
2019-03-27T08:06:09.923Z,67.59
2019-03-27T08:08:37.717Z,67.48
2019-03-27T08:11:05.532Z,67.65
2019-03-27T08:13:33.495Z,67.47
2019-03-27T08:16:01.352Z,67.73
2019-03-27T08:18:29.188Z,67.61
2019-03-27T08:20:57.042Z,67.70
2019-03-27T08:23:24.849Z,68.28
2019-03-27T08:25:52.673Z,68.27
2019-03-27T08:28:20.502Z,67.57
2019-03-27T08:30:48.339Z,67.77
2019-03-27T08:33:16.133Z,67.49
2019-03-27T08:35:43.975Z,66.97
2019-03-27T08:38:14.913Z,67.04
2019-03-27T08:40:41.620Z,67.04
2019-03-27T08:43:20.760Z,67.09
2019-03-27T08:45:39.192Z,66.60
2019-03-27T08:48:07.065Z,65.99
2019-03-27T08:50:34.864Z,66.40
2019-03-27T08:53:02.682Z,66.29
2019-03-27T08:55:30.508Z,66.25
2019-03-27T08:57:58.352Z,65.78
2019-03-27T09:00:46.022Z,66.48
2019-03-27T09:03:13.852Z,67.10
2019-03-27T09:05:41.643Z,67.07
2019-03-27T09:08:09.469Z,67.46
2019-03-27T09:10:37.312Z,67.05
2019-03-27T09:13:05.158Z,67.14
2019-03-27T09:15:33.092Z,67.21
2019-03-27T09:18:00.914Z,66.95
2019-03-27T09:20:28.780Z,66.81
2019-03-27T09:22:56.667Z,66.18
2019-03-27T09:25:24.493Z,65.90
2019-03-27T09:27:52.324Z,65.39
2019-03-27T09:30:20.478Z,64.57
2019-03-27T09:32:48.293Z,63.81
2019-03-27T09:35:16.212Z,63.41
2019-03-27T09:37:44.052Z,62.25
2019-03-27T09:40:12.133Z,62.48
2019-03-27T09:42:39.928Z,62.56
2019-03-27T09:45:08.156Z,61.38
2019-03-27T09:47:35.976Z,61.12
2019-03-27T09:50:04.571Z,60.61
2019-03-27T09:52:32.448Z,60.09
2019-03-27T09:55:00.401Z,59.96
2019-03-27T09:57:28.323Z,59.02
2019-03-27T09:59:56.510Z,59.48
2019-03-27T10:02:24.316Z,59.54
2019-03-27T10:04:52.136Z,57.66
2019-03-27T10:07:19.970Z,57.48
2019-03-27T10:09:50.343Z,57.81
2019-03-27T10:12:17.551Z,58.85
2019-03-27T10:14:47.519Z,58.30
2019-03-27T10:17:15.139Z,57.62
2019-03-27T10:19:42.941Z,57.85
2019-03-27T10:22:10.765Z,57.48
2019-03-27T10:24:38.705Z,57.94
2019-03-27T10:27:06.830Z,57.59
2019-03-27T10:29:34.609Z,57.32
2019-03-27T10:32:02.442Z,57.95
2019-03-27T10:34:30.330Z,57.70
2019-03-27T10:36:58.264Z,58.12
2019-03-27T10:39:26.060Z,58.23
2019-03-27T10:41:53.922Z,58.37
2019-03-27T10:44:21.716Z,58.61
2019-03-27T10:46:49.646Z,58.32
2019-03-27T10:49:17.482Z,58.33
2019-03-27T10:51:45.289Z,58.59
2019-03-27T10:54:13.064Z,58.10
2019-03-27T10:56:41.028Z,58.80
2019-03-27T10:59:08.879Z,58.72
2019-03-27T11:01:36.748Z,59.68
2019-03-27T11:04:04.565Z,59.53
2019-03-27T11:06:32.402Z,59.01
2019-03-27T11:09:00.267Z,59.39
2019-03-27T11:11:28.129Z,59.87
2019-03-27T11:13:55.929Z,60.29
2019-03-27T11:16:23.821Z,60.58
2019-03-27T11:18:51.693Z,60.30
2019-03-27T11:21:19.501Z,59.20
2019-03-27T11:23:47.404Z,59.03
2019-03-27T11:26:15.226Z,59.30
2019-03-27T11:28:43.098Z,58.79
2019-03-27T11:31:10.926Z,58.78
2019-03-27T11:33:38.738Z,59.71
2019-03-27T11:36:06.539Z,59.18
2019-03-27T11:38:37.382Z,59.46
2019-03-27T11:41:04.090Z,59.44
2019-03-27T11:43:31.926Z,60.52
2019-03-27T11:45:59.800Z,60.25
2019-03-27T11:48:27.779Z,60.16
2019-03-27T11:50:55.693Z,60.50
2019-03-27T11:53:23.507Z,60.93
2019-03-27T11:55:51.341Z,60.87
2019-03-27T11:58:21.994Z,60.34
2019-03-27T12:00:54.890Z,60.38
2019-03-27T12:03:19.675Z,60.79
2019-03-27T12:05:47.512Z,61.12
2019-03-27T12:08:15.515Z,61.11
2019-03-27T12:10:43.312Z,61.33
2019-03-27T12:13:11.203Z,60.40
2019-03-27T12:15:42.949Z,59.69
2019-03-27T12:18:13.381Z,59.13
2019-03-27T12:20:42.025Z,59.07
2019-03-27T12:23:10.007Z,59.72
2019-03-27T12:25:37.827Z,59.36
2019-03-27T12:28:05.667Z,59.87
2019-03-27T12:30:33.442Z,59.52
2019-03-27T12:33:01.266Z,59.47
2019-03-27T12:35:29.411Z,58.83
2019-03-27T12:37:57.216Z,59.48
2019-03-27T12:40:24.999Z,60.28
2019-03-27T12:42:52.836Z,59.48
2019-03-27T12:45:20.798Z,60.08
2019-03-27T12:47:48.597Z,60.23
2019-03-27T12:50:16.625Z,59.92
2019-03-27T12:52:44.472Z,59.42
2019-03-27T12:55:12.359Z,59.74
2019-03-27T12:57:40.159Z,60.07
2019-03-27T13:00:09.520Z,59.55
2019-03-27T13:02:37.358Z,59.17
2019-03-27T13:05:05.449Z,59.37
2019-03-27T13:07:33.310Z,58.41
2019-03-27T13:10:01.127Z,58.48
2019-03-27T13:12:28.895Z,58.62
2019-03-27T13:14:56.773Z,58.87
2019-03-27T13:17:24.580Z,58.86
2019-03-27T13:19:52.436Z,59.77
2019-03-27T13:22:20.280Z,60.35
2019-03-27T13:24:48.062Z,60.70
2019-03-27T13:27:15.896Z,60.28
2019-03-27T13:29:43.796Z,61.35
2019-03-27T13:32:11.578Z,61.08
2019-03-27T13:34:39.494Z,61.50
2019-03-27T13:37:07.362Z,62.22
2019-03-27T13:39:35.168Z,62.21
2019-03-27T13:42:02.964Z,62.86
2019-03-27T13:44:37.408Z,62.46
2019-03-27T13:47:01.746Z,61.85
2019-03-27T13:49:29.663Z,62.75
2019-03-27T13:51:57.443Z,63.08
2019-03-27T13:54:25.316Z,62.96
2019-03-27T13:56:53.134Z,63.08
2019-03-27T13:59:21.034Z,63.86
2019-03-27T14:01:48.935Z,63.97
2019-03-27T14:04:16.732Z,63.06
2019-03-27T14:06:44.984Z,63.20
2019-03-27T14:09:12.962Z,63.40
2019-03-27T14:11:40.773Z,63.04
2019-03-27T14:14:11.535Z,63.02
2019-03-27T14:16:38.591Z,62.96
2019-03-27T14:19:06.390Z,62.91
2019-03-27T14:21:34.274Z,61.56
2019-03-27T14:24:02.108Z,61.75
2019-03-27T14:26:44.038Z,61.94
2019-03-27T14:28:59.801Z,61.42
2019-03-27T14:31:27.572Z,61.46
2019-03-27T14:33:58.348Z,61.57
2019-03-27T14:36:26.173Z,60.85
2019-03-27T14:38:53.975Z,61.06
2019-03-27T14:41:21.807Z,61.08
2019-03-27T14:43:49.617Z,60.31
2019-03-27T14:46:17.449Z,59.72
2019-03-27T14:48:45.287Z,59.86
2019-03-27T14:51:13.144Z,59.77
2019-03-27T14:53:40.986Z,60.00
2019-03-27T14:56:08.756Z,60.31
2019-03-27T14:58:36.560Z,60.53
2019-03-27T15:01:04.370Z,60.50
2019-03-27T15:03:32.218Z,59.90
2019-03-27T15:06:01.123Z,60.74
2019-03-27T15:08:29.002Z,60.61
2019-03-27T15:10:56.819Z,60.30
2019-03-27T15:13:24.738Z,60.14
2019-03-27T15:15:52.526Z,61.69
2019-03-27T15:18:20.376Z,61.60
2019-03-27T15:20:48.434Z,61.16
2019-03-27T15:23:16.376Z,61.49
2019-03-27T15:25:44.351Z,62.00
2019-03-27T15:28:12.113Z,61.87
2019-03-27T15:30:40.143Z,61.97
2019-03-27T15:33:07.938Z,62.02
2019-03-27T15:35:35.826Z,62.17
2019-03-27T15:38:03.713Z,61.90
2019-03-27T15:40:42.182Z,62.31
2019-03-27T15:43:10.022Z,62.13
2019-03-27T15:45:37.863Z,61.85
2019-03-27T15:48:05.944Z,61.70
2019-03-27T15:50:33.807Z,61.50
2019-03-27T15:53:01.640Z,62.14
2019-03-27T15:55:29.483Z,62.02
2019-03-27T15:57:57.370Z,62.12
2019-03-27T16:00:25.450Z,62.14
2019-03-27T16:02:53.278Z,62.50
2019-03-27T16:05:23.730Z,62.53
2019-03-27T16:07:51.555Z,62.32
2019-03-27T16:10:19.390Z,62.32
2019-03-27T16:12:47.177Z,61.70
2019-03-27T16:15:15.090Z,61.87
2019-03-27T16:17:42.932Z,62.90
2019-03-27T16:20:10.921Z,62.51
2019-03-27T16:22:50.359Z,62.46
2019-03-27T16:25:08.751Z,62.37
2019-03-27T16:27:36.631Z,62.69
2019-03-27T16:30:05.014Z,62.79
2019-03-27T16:32:32.790Z,62.93
2019-03-27T16:35:00.647Z,63.35
2019-03-27T16:37:28.422Z,63.50
2019-03-27T16:39:56.261Z,63.23
2019-03-27T16:42:24.089Z,63.16
2019-03-27T16:44:51.891Z,62.83
2019-03-27T16:47:19.693Z,62.76
2019-03-27T16:49:47.522Z,63.35
2019-03-27T16:52:15.346Z,63.40
2019-03-27T16:54:43.319Z,63.89
2019-03-27T16:57:11.105Z,63.68
2019-03-27T16:59:38.928Z,63.72
2019-03-27T17:02:06.788Z,64.29
2019-03-27T17:04:34.560Z,64.70
2019-03-27T17:07:02.721Z,64.24
2019-03-27T17:09:30.523Z,64.58
2019-03-27T17:11:58.396Z,64.31
2019-03-27T17:14:26.183Z,64.62
2019-03-27T17:16:54.064Z,64.52
2019-03-27T17:19:21.967Z,64.39
2019-03-27T17:21:49.753Z,64.30
2019-03-27T17:24:17.639Z,64.45
2019-03-27T17:26:45.515Z,64.67
2019-03-27T17:29:13.400Z,64.26
2019-03-27T17:31:41.267Z,64.39
2019-03-27T17:34:09.150Z,64.49
2019-03-27T17:36:37.030Z,64.68
2019-03-27T17:39:07.153Z,64.99
2019-03-27T17:41:34.949Z,64.70
2019-03-27T17:44:02.772Z,64.71
2019-03-27T17:46:33.031Z,65.05
2019-03-27T17:49:00.799Z,65.17
2019-03-27T17:51:28.638Z,65.11
2019-03-27T17:53:56.428Z,65.47
2019-03-27T17:56:24.474Z,65.60
2019-03-27T17:58:52.338Z,65.50
2019-03-27T18:01:20.184Z,65.52
2019-03-27T18:03:48.058Z,65.53
2019-03-27T18:06:15.930Z,65.74
2019-03-27T18:08:43.845Z,66.22
2019-03-27T18:11:11.620Z,66.14
2019-03-27T18:13:39.508Z,66.54
2019-03-27T18:16:07.317Z,66.83
2019-03-27T18:18:35.157Z,66.48
2019-03-27T18:21:02.983Z,66.72
2019-03-27T18:23:46.169Z,66.99
2019-03-27T18:26:18.361Z,66.91
2019-03-27T18:28:46.138Z,66.57
2019-03-27T18:31:13.959Z,67.20
2019-03-27T18:33:41.763Z,67.28
2019-03-27T18:36:09.690Z,67.31
2019-03-27T18:38:37.512Z,67.31
2019-03-27T18:41:05.334Z,67.76
2019-03-27T18:43:33.182Z,67.78
2019-03-27T18:46:00.967Z,67.62
2019-03-27T18:48:28.770Z,67.41
2019-03-27T18:50:56.557Z,67.75
2019-03-27T18:53:24.352Z,67.64
2019-03-27T18:55:52.168Z,67.45
2019-03-27T18:58:20.081Z,67.50
2019-03-27T19:00:47.918Z,67.58
2019-03-27T19:03:15.700Z,67.72
2019-03-27T19:05:43.545Z,67.91
2019-03-27T19:08:11.332Z,68.12
2019-03-27T19:10:39.196Z,68.06
2019-03-27T19:13:07.022Z,68.06
2019-03-27T19:15:34.814Z,68.03
2019-03-27T19:18:02.662Z,68.31
2019-03-27T19:20:30.484Z,68.35
2019-03-27T19:22:58.257Z,68.35
2019-03-27T19:25:26.147Z,68.39
2019-03-27T19:27:53.959Z,68.39
2019-03-27T19:30:21.939Z,68.22
2019-03-27T19:32:49.910Z,68.67
2019-03-27T19:35:17.675Z,68.82
2019-03-27T19:37:45.546Z,69.00
2019-03-27T19:40:13.604Z,69.11
2019-03-27T19:42:41.635Z,69.11
2019-03-27T19:45:09.668Z,69.20
2019-03-27T19:47:37.601Z,69.00
2019-03-27T19:50:05.881Z,69.16
2019-03-27T19:52:33.719Z,69.28
2019-03-27T19:55:01.503Z,69.52
2019-03-27T19:57:29.357Z,70.01
2019-03-27T19:59:57.220Z,70.01
2019-03-27T20:02:25.094Z,69.61
2019-03-27T20:04:53.056Z,69.83
2019-03-27T20:07:20.839Z,69.86
2019-03-27T20:09:48.707Z,70.59
2019-03-27T20:12:16.496Z,70.59
2019-03-27T20:14:44.409Z,71.06
2019-03-27T20:17:12.235Z,71.06
2019-03-27T20:19:40.143Z,70.82
2019-03-27T20:22:07.879Z,70.88
2019-03-27T20:24:41.278Z,71.10
2019-03-27T20:27:05.483Z,71.04
2019-03-27T20:29:33.294Z,71.23
2019-03-27T20:32:01.145Z,71.54
2019-03-27T20:34:28.945Z,71.78
2019-03-27T20:36:56.749Z,71.78
2019-03-27T20:39:24.556Z,71.66
2019-03-27T20:41:52.367Z,71.59
2019-03-27T20:44:20.241Z,71.57
2019-03-27T20:46:48.016Z,71.39
2019-03-27T20:49:15.815Z,71.65
2019-03-27T20:51:43.648Z,71.51
2019-03-27T20:54:11.462Z,71.51
2019-03-27T20:56:39.924Z,71.74
2019-03-27T20:59:07.711Z,72.07
2019-03-27T21:01:35.675Z,72.28
2019-03-27T21:04:03.439Z,72.08
2019-03-27T21:06:31.269Z,72.13
2019-03-27T21:08:59.083Z,72.19
2019-03-27T21:11:26.902Z,72.06
2019-03-27T21:13:54.729Z,72.62
2019-03-27T21:16:22.528Z,72.62
2019-03-27T21:18:50.335Z,72.91
2019-03-27T21:21:18.206Z,72.74
2019-03-27T21:23:46.003Z,72.74
2019-03-27T21:26:13.865Z,72.75
2019-03-27T21:28:41.662Z,72.83
2019-03-27T21:31:09.475Z,72.88
2019-03-27T21:33:37.311Z,72.77
2019-03-27T21:36:05.122Z,72.78
2019-03-27T21:38:32.973Z,72.95
2019-03-27T21:41:00.895Z,72.92
2019-03-27T21:43:28.721Z,72.90
2019-03-27T21:45:56.588Z,72.97
2019-03-27T21:48:24.402Z,72.79
2019-03-27T21:50:52.183Z,72.73
2019-03-27T21:53:20.021Z,72.73
2019-03-27T21:55:47.846Z,72.53
2019-03-27T21:58:15.671Z,72.53
2019-03-27T22:00:43.544Z,72.39
2019-03-27T22:03:11.404Z,72.40
2019-03-27T22:05:39.481Z,72.58
2019-03-27T22:08:07.513Z,72.32
2019-03-27T22:10:35.465Z,72.32
2019-03-27T22:13:03.368Z,72.53
2019-03-27T22:15:31.205Z,72.77
2019-03-27T22:17:59.024Z,72.62
2019-03-27T22:20:26.849Z,72.79
2019-03-27T22:22:54.719Z,73.09
2019-03-27T22:25:34.936Z,73.16
2019-03-27T22:27:52.275Z,72.94
2019-03-27T22:30:20.132Z,72.94
2019-03-27T22:32:48.037Z,73.01
2019-03-27T22:35:15.884Z,73.20
2019-03-27T22:37:43.736Z,73.26
2019-03-27T22:40:11.594Z,73.01
2019-03-27T22:42:41.434Z,72.86
2019-03-27T22:45:10.157Z,72.76
2019-03-27T22:47:37.963Z,72.61
2019-03-27T22:50:07.999Z,72.58
2019-03-27T22:52:35.838Z,72.58
2019-03-27T22:55:03.835Z,73.01
2019-03-27T22:57:31.632Z,73.01
2019-03-27T22:59:59.463Z,73.10
2019-03-27T23:02:27.332Z,73.21
2019-03-27T23:04:55.160Z,73.00
2019-03-27T23:07:22.970Z,73.00
2019-03-27T23:09:50.860Z,72.86
2019-03-27T23:12:18.671Z,72.73
2019-03-27T23:14:46.533Z,72.55
2019-03-27T23:17:14.317Z,72.58
2019-03-27T23:19:42.112Z,72.69
2019-03-27T23:22:09.930Z,72.69
2019-03-27T23:24:37.776Z,72.55
2019-03-27T23:27:05.633Z,72.49
2019-03-27T23:29:33.502Z,72.40
2019-03-27T23:32:01.305Z,72.40
2019-03-27T23:34:29.106Z,72.75
2019-03-27T23:36:56.992Z,72.70
2019-03-27T23:39:24.892Z,72.95
2019-03-27T23:41:52.809Z,73.10
2019-03-27T23:44:20.672Z,73.37
2019-03-27T23:46:48.528Z,73.50
2019-03-27T23:49:16.365Z,73.54
2019-03-27T23:51:44.235Z,73.45
2019-03-27T23:54:12.071Z,73.45
2019-03-27T23:56:39.983Z,73.83
2019-03-27T23:59:07.851Z,73.83
